createdAt,value
2023-02-14T12:46:49.534Z,9.53
2023-02-14T12:49:26.231Z,9.63
2023-02-14T12:51:56.927Z,9.43
2023-02-14T12:54:34.010Z,10.90
2023-02-14T12:57:08.229Z,9.77
2023-02-14T13:02:38.451Z,10.27
2023-02-14T13:05:13.244Z,9.23
2023-02-14T13:07:46.422Z,9.90
2023-02-14T13:10:21.462Z,9.33
2023-02-14T13:12:53.208Z,8.10
2023-02-14T13:15:25.945Z,8.90
2023-02-14T13:17:57.690Z,9.77
2023-02-14T13:20:33.164Z,9.20
2023-02-14T13:23:02.956Z,9.40
2023-02-14T13:25:33.618Z,8.90
2023-02-14T13:28:02.643Z,8.93
2023-02-14T13:30:32.300Z,9.13
2023-02-14T13:33:03.058Z,8.57
2023-02-14T13:35:32.379Z,9.77
2023-02-14T13:38:02.340Z,10.02
2023-02-14T13:40:32.068Z,10.15
2023-02-14T13:43:00.898Z,10.23
2023-02-14T13:45:43.388Z,9.60
2023-02-14T13:48:13.401Z,9.15
2023-02-14T13:50:49.825Z,9.60
2023-02-14T13:53:31.566Z,10.73
2023-02-14T13:56:00.445Z,9.55
2023-02-14T13:58:28.495Z,9.20
2023-02-14T14:00:56.879Z,9.20
2023-02-14T14:03:39.594Z,9.30
2023-02-14T14:06:09.177Z,8.98
2023-02-14T14:08:41.031Z,10.38
2023-02-14T14:11:12.491Z,10.85
2023-02-14T14:13:55.191Z,10.00
2023-02-14T14:16:33.265Z,9.75
2023-02-14T14:19:02.071Z,10.13
2023-02-14T14:21:31.753Z,9.88
2023-02-14T14:24:05.067Z,10.13
2023-02-14T14:26:36.963Z,10.52
2023-02-14T14:29:11.207Z,10.05
2023-02-14T14:31:39.251Z,9.18
2023-02-14T14:34:06.956Z,9.55
2023-02-14T14:36:36.847Z,10.48
2023-02-14T14:39:04.726Z,10.00
2023-02-14T14:41:32.851Z,10.70
2023-02-14T14:44:00.821Z,9.93
2023-02-14T14:46:28.871Z,9.63
2023-02-14T14:48:57.283Z,9.32
2023-02-14T14:51:26.644Z,9.77
2023-02-14T14:53:57.090Z,9.32
2023-02-14T14:56:26.358Z,9.32
2023-02-14T14:58:54.864Z,9.27
2023-02-14T15:01:31.522Z,9.20
2023-02-14T15:04:11.759Z,9.05
2023-02-14T15:06:40.850Z,9.25
2023-02-14T15:09:23.107Z,8.45
2023-02-14T15:12:04.833Z,8.35
2023-02-14T15:14:35.416Z,8.85
2023-02-14T15:17:04.504Z,9.20
2023-02-14T15:19:36.970Z,8.70
2023-02-14T15:22:05.947Z,8.65
2023-02-14T15:24:35.401Z,8.07
2023-02-14T15:27:03.636Z,8.60
2023-02-14T15:29:32.526Z,7.97
2023-02-14T15:32:03.016Z,8.40
2023-02-14T15:34:33.056Z,9.32
2023-02-14T15:37:04.763Z,8.75
2023-02-14T15:39:37.216Z,9.25
2023-02-14T15:42:06.694Z,8.73
2023-02-14T15:44:34.471Z,8.45
2023-02-14T15:47:03.864Z,9.05
2023-02-14T15:49:33.512Z,8.15
2023-02-14T15:52:02.761Z,9.02
2023-02-14T15:54:34.675Z,8.70
2023-02-14T15:57:04.242Z,7.60
2023-02-14T15:59:33.594Z,8.40
2023-02-14T16:02:03.189Z,8.48
2023-02-14T16:04:32.327Z,7.95
2023-02-14T16:07:05.030Z,7.95
2023-02-14T16:09:35.398Z,7.82
2023-02-14T16:12:14.437Z,7.90
2023-02-14T16:14:46.091Z,7.78
2023-02-14T16:17:14.398Z,8.83
2023-02-14T16:19:42.903Z,8.37
2023-02-14T16:22:11.350Z,8.03
2023-02-14T16:24:39.475Z,7.97
2023-02-14T16:27:09.725Z,8.10
2023-02-14T16:29:37.788Z,8.17
2023-02-14T16:32:18.167Z,7.77
2023-02-14T16:34:48.402Z,7.67
2023-02-14T16:37:21.783Z,7.17
2023-02-14T16:39:50.660Z,8.27
2023-02-14T16:42:18.753Z,8.40
2023-02-14T16:44:48.038Z,8.67
2023-02-14T16:47:17.727Z,9.20
2023-02-14T16:49:45.650Z,8.70
2023-02-14T16:52:14.103Z,8.57
2023-02-14T16:54:41.809Z,7.90
2023-02-14T16:57:12.294Z,7.00
2023-02-14T16:59:40.219Z,7.50
2023-02-14T17:02:07.874Z,7.50
2023-02-14T17:04:36.882Z,7.60
2023-02-14T17:07:06.802Z,5.60
2023-02-14T17:09:37.111Z,6.33
2023-02-14T17:12:08.038Z,5.97
2023-02-14T17:14:37.712Z,6.10
2023-02-14T17:17:05.507Z,5.10
2023-02-14T17:19:33.643Z,5.40
2023-02-14T17:22:04.637Z,5.87
2023-02-14T17:24:32.588Z,5.30
2023-02-14T17:27:00.555Z,5.83
2023-02-14T17:29:28.229Z,6.03
2023-02-14T17:31:56.189Z,6.00
2023-02-14T17:34:24.343Z,6.53
2023-02-14T17:36:52.495Z,4.80
2023-02-14T17:39:22.703Z,5.27
2023-02-14T17:41:50.856Z,5.60
2023-02-14T17:44:18.468Z,6.27
2023-02-14T17:46:46.212Z,7.33
2023-02-14T17:49:13.953Z,5.67
2023-02-14T17:51:42.774Z,6.70
2023-02-14T17:54:10.726Z,6.93
2023-02-14T17:56:39.774Z,7.63
2023-02-14T17:59:07.448Z,5.83
2023-02-14T18:01:36.395Z,5.67
2023-02-14T18:04:05.561Z,5.80
2023-02-14T18:06:33.434Z,6.17
2023-02-14T18:09:01.196Z,6.47
2023-02-14T18:11:29.176Z,6.23
2023-02-14T18:13:59.556Z,6.83
2023-02-14T18:16:27.754Z,7.93
2023-02-14T18:18:56.049Z,7.33
2023-02-14T18:21:24.549Z,6.57
2023-02-14T18:23:53.216Z,6.83
2023-02-14T18:26:21.117Z,5.90
2023-02-14T18:28:50.964Z,6.13
2023-02-14T18:31:20.285Z,5.30
2023-02-14T18:33:49.089Z,4.90
2023-02-14T18:36:17.898Z,6.13
2023-02-14T18:38:46.504Z,6.07
2023-02-14T18:41:15.751Z,5.43
2023-02-14T18:43:44.460Z,5.23
2023-02-14T18:46:13.183Z,6.17
2023-02-14T18:48:42.520Z,6.27
2023-02-14T18:51:12.069Z,5.60
2023-02-14T18:53:40.508Z,6.23
2023-02-14T18:56:09.048Z,6.17
2023-02-14T18:58:37.248Z,6.47
2023-02-14T19:01:08.865Z,5.17
2023-02-14T19:03:36.650Z,7.50
2023-02-14T19:06:06.883Z,6.93
2023-02-14T19:08:35.071Z,6.93
2023-02-14T19:11:03.035Z,6.43
2023-02-14T19:13:32.295Z,7.37
2023-02-14T19:16:00.613Z,5.67
2023-02-14T19:18:28.367Z,6.73
2023-02-14T19:20:56.262Z,6.20
2023-02-14T19:23:25.408Z,5.20
2023-02-14T19:25:53.563Z,6.87
2023-02-14T19:28:21.656Z,6.03
2023-02-14T19:30:49.774Z,7.40
2023-02-14T19:33:18.052Z,7.07
2023-02-14T19:35:46.540Z,6.73
2023-02-14T19:38:14.219Z,5.87
2023-02-14T19:40:45.946Z,6.87
2023-02-14T19:43:13.591Z,6.80
2023-02-14T19:45:41.308Z,6.50
2023-02-14T19:48:09.719Z,6.57
2023-02-14T19:50:39.825Z,5.93
2023-02-14T19:53:07.523Z,7.43
2023-02-14T19:55:35.238Z,5.87
2023-02-14T19:58:04.429Z,7.07
2023-02-14T20:00:32.306Z,6.00
2023-02-14T20:03:01.652Z,5.50
2023-02-14T20:05:29.627Z,5.57
2023-02-14T20:07:57.448Z,6.07
2023-02-14T20:10:25.342Z,6.20
2023-02-14T20:12:53.220Z,6.93
2023-02-14T20:15:22.248Z,5.70
2023-02-14T20:17:49.940Z,6.40
2023-02-14T20:20:17.950Z,5.00
2023-02-14T20:22:46.528Z,4.37
2023-02-14T20:25:14.178Z,5.37
2023-02-14T20:27:41.847Z,5.27
2023-02-14T20:30:10.109Z,5.13
2023-02-14T20:32:40.013Z,6.30
2023-02-14T20:35:08.488Z,5.83
2023-02-14T20:37:36.596Z,5.03
2023-02-14T20:40:04.469Z,4.90
2023-02-14T20:42:32.147Z,7.37
2023-02-14T20:44:59.830Z,5.47
2023-02-14T20:47:28.635Z,5.13
2023-02-14T20:49:57.720Z,5.73
2023-02-14T20:52:27.080Z,6.10
2023-02-14T20:54:54.736Z,5.17
2023-02-14T20:57:23.481Z,6.23
2023-02-14T20:59:51.408Z,6.37
2023-02-14T21:02:19.141Z,5.17
2023-02-14T21:04:46.793Z,6.63
2023-02-14T21:07:15.939Z,5.43
2023-02-14T21:09:43.579Z,4.40
2023-02-14T21:12:12.506Z,4.63
2023-02-14T21:14:40.190Z,5.90
2023-02-14T21:17:08.392Z,5.07
2023-02-14T21:19:36.084Z,6.00
2023-02-14T21:22:04.238Z,5.77
2023-02-14T21:24:33.126Z,6.27
2023-02-14T21:27:01.677Z,5.67
2023-02-14T21:29:29.455Z,5.57
2023-02-14T21:31:57.179Z,5.60
2023-02-14T21:34:27.133Z,6.57
2023-02-14T21:36:56.465Z,4.97
2023-02-14T21:39:27.465Z,4.93
2023-02-14T21:41:56.470Z,5.33
2023-02-14T21:44:38.269Z,6.97
2023-02-14T21:47:05.965Z,6.17
2023-02-14T21:49:43.579Z,5.00
2023-02-14T21:52:11.352Z,4.83
2023-02-14T21:54:39.048Z,5.63
2023-02-14T21:57:07.994Z,6.37
2023-02-14T21:59:35.668Z,5.57
2023-02-14T22:02:03.546Z,5.63
2023-02-14T22:04:31.483Z,5.87
2023-02-14T22:06:59.418Z,6.80
2023-02-14T22:09:27.146Z,6.60
2023-02-14T22:11:54.844Z,6.60
2023-02-14T22:14:24.233Z,5.67
2023-02-14T22:16:52.258Z,4.83
2023-02-14T22:19:20.255Z,4.97
2023-02-14T22:21:48.084Z,6.83
2023-02-14T22:24:15.971Z,6.33
2023-02-14T22:26:43.628Z,3.63
2023-02-14T22:29:12.618Z,6.00
2023-02-14T22:31:42.612Z,6.10
2023-02-14T22:34:11.831Z,5.63
2023-02-14T22:36:39.570Z,5.57
2023-02-14T22:39:07.390Z,5.43
2023-02-14T22:41:37.593Z,5.40
2023-02-14T22:44:05.868Z,6.00
2023-02-14T22:46:33.779Z,6.63
2023-02-14T22:49:02.746Z,4.83
2023-02-14T22:51:32.103Z,5.30
2023-02-14T22:54:00.684Z,5.10
2023-02-14T22:56:29.566Z,5.80
2023-02-14T22:58:58.572Z,5.13
2023-02-14T23:01:26.488Z,6.07
2023-02-14T23:03:54.990Z,6.17
2023-02-14T23:06:24.732Z,6.67
2023-02-14T23:08:52.607Z,6.20
2023-02-14T23:11:21.637Z,5.90
2023-02-14T23:13:58.629Z,6.53
2023-02-14T23:16:36.052Z,6.97
2023-02-14T23:19:14.745Z,6.40
2023-02-14T23:21:53.011Z,6.97
2023-02-14T23:24:21.127Z,7.17
2023-02-14T23:26:48.844Z,5.90
2023-02-14T23:29:16.568Z,6.20
2023-02-14T23:31:44.373Z,5.90
2023-02-14T23:34:12.502Z,5.33
2023-02-14T23:36:40.999Z,5.73
2023-02-14T23:39:09.964Z,6.47
2023-02-14T23:41:48.225Z,7.77
2023-02-14T23:44:16.194Z,6.60
2023-02-14T23:46:43.848Z,6.40
2023-02-14T23:49:11.963Z,7.00
2023-02-14T23:51:39.634Z,6.77
2023-02-14T23:54:07.559Z,5.73
2023-02-14T23:56:36.942Z,6.57
2023-02-14T23:59:04.794Z,6.00
